createdAt,value
2022-09-06T00:02:09.571Z,101300.72
2022-09-06T00:04:37.336Z,101301.78
2022-09-06T00:07:05.575Z,101300.97
2022-09-06T00:09:33.283Z,101305.53
2022-09-06T00:12:02.351Z,101306.56
2022-09-06T00:14:30.057Z,101312.97
2022-09-06T00:16:57.937Z,101315.78
2022-09-06T00:19:25.799Z,101315.84
2022-09-06T00:21:53.452Z,101319.59
2022-09-06T00:24:21.165Z,101317.88
2022-09-06T00:26:48.910Z,101315.34
2022-09-06T00:29:17.964Z,101314.53
2022-09-06T00:31:45.738Z,101315.56
2022-09-06T00:34:13.433Z,101316.53
2022-09-06T00:36:41.072Z,101318.44
2022-09-06T00:39:08.905Z,101317.59
2022-09-06T00:41:36.584Z,101315.88
2022-09-06T00:44:04.692Z,101298.88
2022-09-06T00:46:34.734Z,101303.47
2022-09-06T00:49:06.353Z,101301.69
2022-09-06T00:51:36.446Z,101299.94
2022-09-06T00:54:06.331Z,101309.81
2022-09-06T00:56:36.402Z,101305.38
2022-09-06T00:59:05.208Z,101307.28
2022-09-06T01:01:34.420Z,101299.25
2022-09-06T01:04:04.182Z,101301.06
2022-09-06T01:06:43.642Z,101309.25
2022-09-06T01:09:21.397Z,101295.88
2022-09-06T01:11:59.881Z,101303.06
2022-09-06T01:14:41.688Z,101307.59
2022-09-06T01:17:20.807Z,101311.22
2022-09-06T01:20:21.332Z,101315.78
2022-09-06T01:23:16.827Z,101322.13
2022-09-06T01:25:56.700Z,101316.81
2022-09-06T01:28:32.231Z,101311.53
2022-09-06T01:31:08.980Z,101313.38
2022-09-06T01:33:42.345Z,101316.16
2022-09-06T01:36:15.827Z,101309.91
2022-09-06T01:38:43.659Z,101310.03
2022-09-06T01:41:12.188Z,101315.47
2022-09-06T01:43:46.107Z,101319.06
2022-09-06T01:46:20.926Z,101313.81
2022-09-06T01:49:04.951Z,101310.25
2022-09-06T01:51:40.827Z,101317.47
2022-09-06T01:54:24.983Z,101316.63
2022-09-06T01:57:08.933Z,101322.03
2022-09-06T01:59:51.746Z,101320.31
2022-09-06T02:02:26.221Z,101308.75
2022-09-06T02:05:02.428Z,101295.34
2022-09-06T02:07:33.582Z,101291.81
2022-09-06T02:10:08.024Z,101295.44
2022-09-06T02:12:40.328Z,101288.28
2022-09-06T02:15:12.518Z,101282.94
2022-09-06T02:17:46.451Z,101285.66
2022-09-06T02:20:18.437Z,101292.00
2022-09-06T02:22:49.163Z,101287.56
2022-09-06T02:25:24.809Z,101293.91
2022-09-06T02:27:53.328Z,101296.66
2022-09-06T02:30:22.595Z,101287.78
2022-09-06T02:32:57.115Z,101291.50
2022-09-06T02:35:25.354Z,101297.84
2022-09-06T02:37:53.250Z,101288.97
2022-09-06T02:40:21.571Z,101290.84
2022-09-06T02:42:49.590Z,101293.59
2022-09-06T02:45:17.441Z,101289.22
2022-09-06T02:47:46.511Z,101291.09
2022-09-06T02:50:15.403Z,101283.09
2022-09-06T02:52:43.218Z,101284.09
2022-09-06T02:55:11.276Z,101288.56
2022-09-06T02:57:39.553Z,101279.72
2022-09-06T03:00:08.449Z,101287.81
2022-09-06T03:02:36.311Z,101279.84
2022-09-06T03:05:06.059Z,101275.41
2022-09-06T03:07:33.786Z,101277.28
2022-09-06T03:10:01.759Z,101276.41
2022-09-06T03:12:29.702Z,101281.84
2022-09-06T03:14:57.886Z,101269.34
2022-09-06T03:17:25.962Z,101269.44
2022-09-06T03:19:53.713Z,101273.06
2022-09-06T03:22:22.692Z,101271.34
2022-09-06T03:24:50.396Z,101266.88
2022-09-06T03:27:18.172Z,101261.53
2022-09-06T03:29:45.834Z,101262.50
2022-09-06T03:32:13.455Z,101252.72
2022-09-06T03:34:41.130Z,101253.69
2022-09-06T03:37:08.907Z,101257.28
2022-09-06T03:39:38.024Z,101251.94
2022-09-06T03:42:05.832Z,101251.13
2022-09-06T03:44:34.033Z,101259.19
2022-09-06T03:47:01.682Z,101258.31
2022-09-06T03:49:29.325Z,101261.97
2022-09-06T03:51:57.205Z,101254.84
2022-09-06T03:54:25.572Z,101257.59
2022-09-06T03:56:54.625Z,101254.94
2022-09-06T03:59:22.254Z,101257.63
2022-09-06T04:01:49.872Z,101262.16
2022-09-06T04:04:17.496Z,101255.94
2022-09-06T04:06:45.139Z,101263.13
2022-09-06T04:09:12.835Z,101268.53
2022-09-06T04:11:42.917Z,101275.72
2022-09-06T04:14:13.805Z,101275.75
2022-09-06T04:16:41.524Z,101278.47
2022-09-06T04:19:09.286Z,101275.84
2022-09-06T04:21:36.924Z,101277.66
2022-09-06T04:24:04.547Z,101287.53
2022-09-06T04:26:32.191Z,101279.53
2022-09-06T04:28:59.822Z,101282.25
2022-09-06T04:31:29.167Z,101273.34
2022-09-06T04:33:56.818Z,101268.88
2022-09-06T04:36:24.455Z,101266.22
2022-09-06T04:38:52.266Z,101269.84
2022-09-06T04:41:19.891Z,101266.31
2022-09-06T04:43:47.759Z,101264.53
2022-09-06T04:46:23.103Z,101255.66
2022-09-06T04:48:53.051Z,101252.91
2022-09-06T04:51:21.459Z,101256.50
2022-09-06T04:53:49.532Z,101259.19
2022-09-06T04:56:19.369Z,101250.25
2022-09-06T04:58:48.717Z,101249.34
2022-09-06T05:01:17.274Z,101258.28
2022-09-06T05:03:45.030Z,101255.63
2022-09-06T05:06:19.247Z,101253.81
2022-09-06T05:08:46.885Z,101248.44
2022-09-06T05:11:14.839Z,101243.94
2022-09-06T05:13:42.569Z,101237.72
2022-09-06T05:16:10.655Z,101241.25
2022-09-06T05:18:38.451Z,101251.06
2022-09-06T05:21:07.619Z,101243.03
2022-09-06T05:23:36.973Z,101257.31
2022-09-06T05:26:05.097Z,101242.13
2022-09-06T05:28:32.758Z,101246.59
2022-09-06T05:31:10.719Z,101258.16
2022-09-06T05:33:38.407Z,101251.03
2022-09-06T05:36:07.343Z,101248.34
2022-09-06T05:38:36.338Z,101237.59
2022-09-06T05:41:03.964Z,101236.69
2022-09-06T05:43:31.929Z,101227.78
2022-09-06T05:46:00.124Z,101233.06
2022-09-06T05:48:28.000Z,101234.84
2022-09-06T05:51:02.656Z,101226.78
2022-09-06T05:53:36.456Z,101238.34
2022-09-06T05:56:05.393Z,101238.31
2022-09-06T05:58:33.235Z,101239.13
2022-09-06T06:01:08.948Z,101230.16
2022-09-06T06:03:36.602Z,101240.84
2022-09-06T06:06:04.260Z,101239.88
2022-09-06T06:08:31.908Z,101225.53
2022-09-06T06:11:01.420Z,101230.81
2022-09-06T06:13:31.729Z,101232.53
2022-09-06T06:15:59.658Z,101238.72
2022-09-06T06:18:27.337Z,101237.72
2022-09-06T06:21:08.501Z,101235.81
2022-09-06T06:23:36.211Z,101234.91
2022-09-06T06:26:05.421Z,101239.28
2022-09-06T06:28:33.389Z,101240.09
2022-09-06T06:31:01.033Z,101233.78
2022-09-06T06:33:29.078Z,101222.03
2022-09-06T06:36:01.321Z,101224.66
2022-09-06T06:38:32.796Z,101234.41
2022-09-06T06:41:05.849Z,101234.34
2022-09-06T06:43:37.870Z,101230.72
2022-09-06T06:46:06.644Z,101227.97
2022-09-06T06:48:34.382Z,101220.81
2022-09-06T06:51:02.286Z,101230.56
2022-09-06T06:53:30.161Z,101235.84
2022-09-06T06:55:57.790Z,101238.41
2022-09-06T06:58:25.774Z,101248.13
2022-09-06T07:00:54.867Z,101245.25
2022-09-06T07:03:22.544Z,101237.13
2022-09-06T07:08:38.276Z,101240.50
2022-09-06T07:11:07.426Z,101250.22
2022-09-06T07:13:35.212Z,101243.00
2022-09-06T07:16:13.311Z,101244.72
2022-09-06T07:18:42.264Z,101245.50
2022-09-06T07:24:07.012Z,101246.13
2022-09-06T07:26:36.620Z,101245.22
2022-09-06T07:29:06.143Z,101247.84
2022-09-06T07:34:25.195Z,101253.06
2022-09-06T07:36:53.335Z,101255.72
2022-09-06T07:39:21.102Z,101251.22
2022-09-06T07:41:48.895Z,101256.53
2022-09-06T07:44:16.648Z,101254.69
2022-09-06T07:46:45.822Z,101254.59
2022-09-06T07:49:13.612Z,101256.34
2022-09-06T07:51:41.241Z,101257.94
2022-09-06T07:56:56.474Z,101257.47
2022-09-06T07:59:24.090Z,101250.13
2022-09-06T08:01:53.324Z,101249.13
2022-09-06T08:04:21.017Z,101255.22
2022-09-06T08:09:39.772Z,101247.56
2022-09-06T08:12:08.224Z,101254.47
2022-09-06T08:14:36.540Z,101243.53
2022-09-06T08:17:05.560Z,101232.44
2022-09-06T08:19:34.406Z,101244.63
2022-09-06T08:22:02.039Z,101233.47
2022-09-06T08:24:29.692Z,101229.56
2022-09-06T08:26:57.306Z,101226.69
2022-09-06T08:29:25.972Z,101220.28
2022-09-06T08:31:53.899Z,101218.13
2022-09-06T08:34:22.931Z,101235.00
2022-09-06T08:36:50.585Z,101222.31
2022-09-06T08:39:18.630Z,101221.22
2022-09-06T08:41:51.325Z,101213.91
2022-09-06T08:47:12.543Z,101217.34
2022-09-06T08:49:44.997Z,101209.97
2022-09-06T08:52:35.264Z,101213.38
2022-09-06T08:55:22.659Z,101207.81
2022-09-06T08:58:02.145Z,101201.31
2022-09-06T09:00:30.697Z,101199.44
2022-09-06T09:03:12.051Z,101196.66
2022-09-06T09:05:49.045Z,101196.50
2022-09-06T09:08:26.558Z,101187.31
2022-09-06T09:10:58.895Z,101184.41
2022-09-06T09:13:30.258Z,101180.50
2022-09-06T09:15:58.091Z,101170.19
2022-09-06T09:18:30.490Z,101175.22
2022-09-06T09:21:00.416Z,101172.06
2022-09-06T09:23:29.987Z,101168.97
2022-09-06T09:26:03.365Z,101171.94
2022-09-06T09:28:31.245Z,101172.75
2022-09-06T09:31:00.045Z,101169.09
2022-09-06T09:33:36.935Z,101165.69
2022-09-06T09:36:10.902Z,101167.19
2022-09-06T09:38:44.340Z,101167.50
2022-09-06T09:41:28.600Z,101165.44
2022-09-06T09:44:04.178Z,101157.94
2022-09-06T09:46:34.489Z,101158.19
2022-09-06T09:49:08.595Z,101155.78
2022-09-06T09:51:39.388Z,101154.34
2022-09-06T09:54:09.036Z,101154.09
2022-09-06T09:56:48.288Z,101146.75
2022-09-06T09:59:25.226Z,101150.72
2022-09-06T10:01:56.338Z,101145.53
2022-09-06T10:04:46.975Z,101144.50
2022-09-06T10:07:20.553Z,101136.69
2022-09-06T10:09:49.842Z,101138.03
2022-09-06T10:12:20.001Z,101145.06
2022-09-06T10:14:49.770Z,101134.84
2022-09-06T10:17:28.819Z,101140.47
2022-09-06T10:19:57.301Z,101135.81
2022-09-06T10:22:31.736Z,101142.03
2022-09-06T10:25:32.279Z,101126.38
2022-09-06T10:28:29.241Z,101113.44
2022-09-06T10:31:20.106Z,101123.88
2022-09-06T10:34:03.499Z,101122.59
2022-09-06T10:36:35.998Z,101117.56
2022-09-06T10:39:18.706Z,101117.25
2022-09-06T10:41:59.661Z,101118.47
2022-09-06T10:44:50.041Z,101121.69
2022-09-06T10:47:19.179Z,101112.44
2022-09-06T10:49:54.341Z,101107.19
2022-09-06T10:52:26.349Z,101107.31
2022-09-06T10:55:02.184Z,101106.91
2022-09-06T11:00:24.089Z,101100.63
2022-09-06T11:05:49.866Z,101102.53
2022-09-06T11:11:20.805Z,101109.56
2022-09-06T11:13:48.606Z,101104.69
2022-09-06T11:16:22.726Z,101106.09
2022-09-06T11:18:56.452Z,101104.56
2022-09-06T11:21:46.549Z,101102.34
2022-09-06T11:24:16.380Z,101104.13
2022-09-06T11:26:58.780Z,101111.91
2022-09-06T11:29:28.824Z,101111.38
2022-09-06T11:34:54.675Z,101096.25
2022-09-06T11:37:28.693Z,101089.91
2022-09-06T11:43:14.028Z,101086.69
2022-09-06T11:45:48.583Z,101087.56
2022-09-06T11:48:37.676Z,101088.59
2022-09-06T11:51:10.873Z,101091.06
2022-09-06T11:54:13.042Z,101089.16
2022-09-06T11:56:43.839Z,101103.78
2022-09-06T11:59:34.678Z,101095.81
2022-09-06T12:02:04.331Z,101091.84
2022-09-06T12:05:09.921Z,101096.25
2022-09-06T12:07:40.015Z,101092.47
2022-09-06T12:10:40.128Z,101096.25
2022-09-06T12:13:48.530Z,101089.88
2022-09-06T12:16:19.315Z,101068.94
2022-09-06T12:19:04.005Z,101073.16
2022-09-06T12:21:52.384Z,101067.50
2022-09-06T12:24:56.823Z,101066.31
2022-09-06T12:27:27.235Z,101060.75
2022-09-06T12:29:59.384Z,101060.38
2022-09-06T12:32:36.759Z,101065.00
2022-09-06T12:37:57.836Z,101052.56
2022-09-06T12:40:27.631Z,101056.81
2022-09-06T12:42:56.337Z,101045.72
2022-09-06T12:45:27.568Z,101042.25
2022-09-06T12:48:09.674Z,101047.09
2022-09-06T12:50:37.869Z,101036.16
2022-09-06T12:53:23.130Z,101030.00
2022-09-06T12:56:05.214Z,101024.94
2022-09-06T12:58:33.472Z,101022.41
2022-09-06T13:01:07.786Z,101011.28
2022-09-06T13:03:40.824Z,101018.88
2022-09-06T13:06:12.244Z,101024.84
2022-09-06T13:08:45.544Z,101017.63
2022-09-06T13:11:16.290Z,101025.22
2022-09-06T13:13:49.307Z,101028.56
2022-09-06T13:16:22.351Z,101025.59
2022-09-06T13:18:51.919Z,101012.91
2022-09-06T13:21:28.731Z,101008.91
2022-09-06T13:23:59.081Z,101003.91
2022-09-06T13:26:34.615Z,101009.69
2022-09-06T13:29:13.315Z,101004.94
2022-09-06T13:31:46.535Z,100995.06
2022-09-06T13:34:23.298Z,101000.31
2022-09-06T13:36:52.951Z,100993.59
2022-09-06T13:39:34.841Z,100995.31
2022-09-06T13:42:05.789Z,100987.50
2022-09-06T13:44:36.212Z,100996.94
2022-09-06T13:47:04.686Z,100987.50
2022-09-06T13:49:34.500Z,100989.16
2022-09-06T13:52:04.692Z,100986.41
2022-09-06T13:54:34.776Z,100975.84
2022-09-06T13:57:02.908Z,100981.91
2022-09-06T13:59:31.579Z,100980.94
2022-09-06T14:02:02.926Z,100989.63
2022-09-06T14:04:32.445Z,100974.78
2022-09-06T14:07:01.533Z,100977.03
2022-09-06T14:09:29.588Z,100982.28
2022-09-06T14:11:57.682Z,100980.44
2022-09-06T14:14:25.673Z,100969.63
2022-09-06T14:16:54.080Z,100973.69
2022-09-06T14:19:21.841Z,100971.81
2022-09-06T14:21:49.702Z,100972.22
2022-09-06T14:24:19.060Z,100973.88
2022-09-06T14:26:47.236Z,100973.75
2022-09-06T14:29:15.176Z,100968.78
2022-09-06T14:31:42.892Z,100978.22
2022-09-06T14:34:10.964Z,100964.75
2022-09-06T14:36:38.710Z,100973.22
2022-09-06T14:39:06.548Z,100964.16
2022-09-06T14:41:36.362Z,100976.13
2022-09-06T14:44:04.804Z,100974.00
2022-09-06T14:46:32.726Z,100972.50
2022-09-06T14:49:02.302Z,100968.28
2022-09-06T14:51:31.107Z,100967.53
2022-09-06T14:54:02.356Z,100971.75
2022-09-06T14:56:30.362Z,100968.66
2022-09-06T14:59:00.426Z,100958.84
2022-09-06T15:01:34.121Z,100957.56
2022-09-06T15:04:05.078Z,100956.16
2022-09-06T15:06:35.013Z,100965.75
2022-09-06T15:09:02.814Z,100953.03
2022-09-06T15:11:34.691Z,100951.03
2022-09-06T15:14:05.604Z,100953.88
2022-09-06T15:16:34.290Z,100951.25
2022-09-06T15:19:02.772Z,100946.03
2022-09-06T15:21:31.514Z,100946.31
2022-09-06T15:23:59.861Z,100944.50
2022-09-06T15:26:27.510Z,100949.31
2022-09-06T15:28:55.463Z,100941.16
2022-09-06T15:31:24.550Z,100942.31
2022-09-06T15:33:52.861Z,100940.81
2022-09-06T15:36:21.829Z,100941.09
2022-09-06T15:38:50.850Z,100940.88
2022-09-06T15:41:20.846Z,100935.22
2022-09-06T15:43:50.621Z,100936.75
2022-09-06T15:46:22.167Z,100930.09
2022-09-06T15:48:53.717Z,100933.38
2022-09-06T15:51:22.175Z,100924.97
2022-09-06T15:53:49.857Z,100928.69
2022-09-06T15:56:18.915Z,100927.91
2022-09-06T15:58:47.681Z,100915.25
2022-09-06T16:01:17.253Z,100913.34
2022-09-06T16:03:46.814Z,100914.31
2022-09-06T16:06:26.863Z,100921.78
2022-09-06T16:08:59.369Z,100920.00
2022-09-06T16:11:28.171Z,100922.63
2022-09-06T16:13:56.238Z,100911.59
2022-09-06T16:16:24.145Z,100919.50
2022-09-06T16:18:53.132Z,100923.41
2022-09-06T16:21:24.751Z,100912.91
2022-09-06T16:23:54.001Z,100908.94
2022-09-06T16:26:25.005Z,100913.22
2022-09-06T16:28:53.581Z,100908.50
2022-09-06T16:31:22.289Z,100907.00
2022-09-06T16:33:50.653Z,100908.44
2022-09-06T16:36:19.516Z,100897.19
2022-09-06T16:38:49.518Z,100903.13
2022-09-06T16:41:20.640Z,100906.41
2022-09-06T16:43:50.053Z,100900.59
2022-09-06T16:46:18.307Z,100904.66
2022-09-06T16:48:52.108Z,100907.94
2022-09-06T16:51:20.733Z,100909.53
2022-09-06T16:53:50.866Z,100904.47
2022-09-06T16:56:20.328Z,100914.84
2022-09-06T16:58:51.484Z,100902.59
2022-09-06T17:01:20.039Z,100905.78
2022-09-06T17:03:48.249Z,100915.34
2022-09-06T17:06:16.539Z,100904.00
2022-09-06T17:08:44.861Z,100909.94
2022-09-06T17:11:16.208Z,100900.41
2022-09-06T17:13:44.933Z,100900.88
2022-09-06T17:16:30.481Z,100902.06
2022-09-06T17:19:01.132Z,100897.09
2022-09-06T17:21:30.263Z,100896.56
2022-09-06T17:23:58.648Z,100897.81
2022-09-06T17:26:27.724Z,100894.56
2022-09-06T17:28:56.919Z,100889.47
2022-09-06T17:31:26.069Z,100890.63
2022-09-06T17:33:54.184Z,100891.81
2022-09-06T17:36:24.236Z,100895.75
2022-09-06T17:38:54.170Z,100885.25
2022-09-06T17:41:25.711Z,100893.81
2022-09-06T17:43:55.391Z,100893.25
2022-09-06T17:46:28.447Z,100894.56
2022-09-06T17:48:57.053Z,100895.88
2022-09-06T17:51:25.863Z,100896.25
2022-09-06T17:53:53.960Z,100901.06
2022-09-06T17:56:22.591Z,100899.56
2022-09-06T17:58:56.111Z,100896.31
2022-09-06T18:01:25.670Z,100906.59
2022-09-06T18:03:53.658Z,100899.69
2022-09-06T18:06:23.606Z,100899.13
2022-09-06T18:08:53.044Z,100894.88
2022-09-06T18:11:23.417Z,100896.16
2022-09-06T18:13:58.492Z,100896.47
2022-09-06T18:16:27.580Z,100901.31
2022-09-06T18:18:57.454Z,100899.88
2022-09-06T18:21:27.436Z,100907.34
2022-09-06T18:23:55.775Z,100908.53
2022-09-06T18:26:24.520Z,100915.16
2022-09-06T18:28:53.387Z,100916.34
2022-09-06T18:31:24.437Z,100917.44
2022-09-06T18:33:52.720Z,100915.06
2022-09-06T18:36:21.113Z,100919.88
2022-09-06T18:38:48.775Z,100920.97
2022-09-06T18:41:30.995Z,100923.94
2022-09-06T18:44:00.703Z,100922.38
2022-09-06T18:46:30.603Z,100928.00
2022-09-06T18:48:58.357Z,100919.19
2022-09-06T18:51:26.285Z,100923.94
2022-09-06T18:53:54.220Z,100940.34
2022-09-06T18:56:21.875Z,100937.06
2022-09-06T18:58:49.695Z,100949.84
2022-09-06T19:01:20.127Z,100949.19
2022-09-06T19:03:49.194Z,100950.25
2022-09-06T19:06:19.743Z,100955.91
2022-09-06T19:08:48.550Z,100947.13
2022-09-06T19:11:18.790Z,100950.09
2022-09-06T19:13:47.990Z,100949.38
2022-09-06T19:16:16.064Z,100954.97
2022-09-06T19:18:43.841Z,100957.88
2022-09-06T19:21:14.286Z,100950.88
2022-09-06T19:23:44.073Z,100951.13
2022-09-06T19:26:16.848Z,100959.41
2022-09-06T19:28:49.627Z,100956.03
2022-09-06T19:31:18.429Z,100951.69
2022-09-06T19:33:48.007Z,100954.56
2022-09-06T19:36:18.255Z,100949.38
2022-09-06T19:39:03.011Z,100947.72
2022-09-06T19:41:32.911Z,100938.91
2022-09-06T19:44:01.679Z,100928.31
2022-09-06T19:46:29.456Z,100929.31
2022-09-06T19:48:57.283Z,100926.88
2022-09-06T19:51:26.274Z,100931.47
2022-09-06T19:53:57.535Z,100929.84
2022-09-06T19:56:27.224Z,100928.22
2022-09-06T19:58:56.429Z,100923.91
2022-09-06T20:01:25.504Z,100921.38
2022-09-06T20:03:54.001Z,100913.41
2022-09-06T20:06:22.414Z,100917.19
2022-09-06T20:08:53.324Z,100917.25
2022-09-06T20:11:23.169Z,100915.66
2022-09-06T20:13:51.128Z,100917.53
2022-09-06T20:16:20.860Z,100921.28
2022-09-06T20:18:49.350Z,100908.88
2022-09-06T20:21:18.528Z,100907.19
2022-09-06T20:23:51.580Z,100908.19
2022-09-06T20:26:20.018Z,100900.28
2022-09-06T20:28:48.843Z,100893.25
2022-09-06T20:31:18.233Z,100894.22
2022-09-06T20:33:49.715Z,100890.78
2022-09-06T20:36:18.692Z,100897.25
2022-09-06T20:38:47.741Z,100893.81
2022-09-06T20:41:18.397Z,100900.25
2022-09-06T20:43:46.824Z,100892.28
2022-09-06T20:46:16.777Z,100890.66
2022-09-06T20:48:46.001Z,100888.16
2022-09-06T20:51:15.649Z,100890.09
2022-09-06T20:53:43.374Z,100892.97
2022-09-06T20:56:13.030Z,100896.69
2022-09-06T20:58:42.781Z,100896.00
2022-09-06T21:01:15.237Z,100886.13
2022-09-06T21:03:43.669Z,100880.94
2022-09-06T21:06:13.303Z,100876.66
2022-09-06T21:08:43.107Z,100877.63
2022-09-06T21:11:11.725Z,100871.53
2022-09-06T21:13:40.493Z,100867.22
2022-09-06T21:16:09.977Z,100867.38
2022-09-06T21:18:37.809Z,100874.75
2022-09-06T21:21:07.844Z,100869.47
2022-09-06T21:23:36.897Z,100876.81
2022-09-06T21:26:06.571Z,100885.84
2022-09-06T21:28:36.606Z,100891.34
2022-09-06T21:31:08.135Z,100889.72
2022-09-06T21:33:40.446Z,100892.56
2022-09-06T21:36:09.721Z,100886.41
2022-09-06T21:38:39.314Z,100883.84
2022-09-06T21:41:08.540Z,100876.81
2022-09-06T21:43:36.573Z,100881.44
2022-09-06T21:46:04.959Z,100886.06
2022-09-06T21:48:32.675Z,100879.03
2022-09-06T21:51:01.641Z,100877.34
2022-09-06T21:53:29.276Z,100868.53
2022-09-06T21:56:00.434Z,100869.56
2022-09-06T21:58:28.449Z,100873.31
2022-09-06T22:00:59.192Z,100882.38
2022-09-06T22:03:27.345Z,100881.59
2022-09-06T22:05:55.680Z,100878.22
2022-09-06T22:08:25.509Z,100880.13
2022-09-06T22:10:53.242Z,100879.31
2022-09-06T22:13:21.886Z,100876.78
2022-09-06T22:15:49.566Z,100876.88
2022-09-06T22:18:17.204Z,100877.94
2022-09-06T22:20:44.862Z,100886.16
2022-09-06T22:23:12.471Z,100873.75
2022-09-06T22:25:42.905Z,100884.63
2022-09-06T22:28:10.774Z,100872.22
2022-09-06T22:30:39.267Z,100868.75
2022-09-06T22:33:06.871Z,100870.72
2022-09-06T22:35:34.869Z,100865.53
2022-09-06T22:38:02.625Z,100864.81
2022-09-06T22:40:30.257Z,100857.81
2022-09-06T22:42:59.209Z,100870.47
2022-09-06T22:45:26.873Z,100865.25
2022-09-06T22:47:54.912Z,100863.66
2022-09-06T22:50:22.578Z,100850.34
2022-09-06T22:52:50.192Z,100844.25
2022-09-06T22:55:18.257Z,100839.88
2022-09-06T22:57:45.892Z,100848.94
2022-09-06T23:00:15.853Z,100836.44
2022-09-06T23:02:43.607Z,100843.69
2022-09-06T23:05:11.246Z,100827.66
2022-09-06T23:07:38.900Z,100821.47
2022-09-06T23:10:07.523Z,100820.63
2022-09-06T23:12:35.141Z,100820.63
2022-09-06T23:15:02.844Z,100819.81
2022-09-06T23:17:31.814Z,100818.09
2022-09-06T23:19:59.989Z,100819.91
2022-09-06T23:22:27.764Z,100811.91
2022-09-06T23:24:55.397Z,100801.19
2022-09-06T23:27:23.021Z,100809.31
2022-09-06T23:29:50.797Z,100802.19
2022-09-06T23:32:18.434Z,100804.09
2022-09-06T23:34:47.846Z,100806.81
2022-09-06T23:37:15.480Z,100806.91
2022-09-06T23:39:43.202Z,100809.69
2022-09-06T23:42:10.858Z,100796.34
2022-09-06T23:44:38.525Z,100802.69
2022-09-06T23:47:06.575Z,100796.53
2022-09-06T23:49:34.248Z,100799.31
2022-09-06T23:52:03.785Z,100803.91
2022-09-06T23:54:31.421Z,100799.50
2022-09-06T23:56:59.077Z,100789.69
2022-09-06T23:59:26.743Z,100795.09
